createdAt,value
2022-12-11T00:02:05.813Z,14.45
2022-12-11T00:04:32.714Z,14.45
2022-12-11T00:06:59.279Z,12.73
2022-12-11T00:09:26.100Z,14.57
2022-12-11T00:11:52.648Z,13.15
2022-12-11T00:14:19.545Z,14.75
2022-12-11T00:16:48.248Z,13.02
2022-12-11T00:19:15.173Z,14.10
2022-12-11T00:21:42.400Z,14.10
2022-12-11T00:24:08.980Z,13.15
2022-12-11T00:26:35.511Z,13.00
2022-12-11T00:29:02.050Z,14.13
2022-12-11T00:31:28.639Z,14.77
2022-12-11T00:33:55.712Z,13.03
2022-12-11T00:36:25.055Z,13.70
2022-12-11T00:38:53.021Z,14.43
2022-12-11T00:41:19.851Z,13.50
2022-12-11T00:43:46.919Z,13.60
2022-12-11T00:46:13.728Z,12.70
2022-12-11T00:48:40.202Z,13.85
2022-12-11T00:51:06.851Z,13.57
2022-12-11T00:53:33.331Z,12.80
2022-12-11T00:55:59.801Z,14.40
2022-12-11T00:58:26.288Z,13.33
2022-12-11T01:00:53.803Z,14.90
2022-12-11T01:03:20.399Z,14.98
2022-12-11T01:05:54.730Z,14.80
2022-12-11T01:08:21.705Z,14.00
2022-12-11T01:10:48.405Z,15.10
2022-12-11T01:13:15.324Z,14.60
2022-12-11T01:15:44.491Z,15.20
2022-12-11T01:18:15.741Z,13.55
2022-12-11T01:20:42.756Z,14.70
2022-12-11T01:23:13.214Z,16.17
2022-12-11T01:25:41.036Z,16.27
2022-12-11T01:28:07.674Z,15.88
2022-12-11T01:30:34.348Z,17.02
2022-12-11T01:33:01.162Z,15.85
2022-12-11T01:35:28.223Z,15.73
2022-12-11T01:37:54.991Z,16.25
2022-12-11T01:40:22.807Z,15.73
2022-12-11T01:42:49.294Z,15.82
2022-12-11T01:45:21.617Z,16.50
2022-12-11T01:47:53.690Z,16.80
2022-12-11T01:50:20.400Z,15.20
2022-12-11T01:52:49.349Z,14.05
2022-12-11T01:55:18.282Z,15.50
2022-12-11T01:57:48.940Z,15.48
2022-12-11T02:00:16.011Z,13.70
2022-12-11T02:02:42.537Z,12.85
2022-12-11T02:05:09.767Z,14.68
2022-12-11T02:07:57.297Z,14.73
2022-12-11T02:10:43.347Z,15.02
2022-12-11T02:13:18.325Z,15.50
2022-12-11T02:16:11.978Z,13.73
2022-12-11T02:18:47.681Z,14.30
2022-12-11T02:21:24.877Z,15.30
2022-12-11T02:24:17.559Z,14.93
2022-12-11T02:26:59.949Z,14.27
2022-12-11T02:29:33.742Z,14.15
2022-12-11T02:32:07.750Z,15.02
2022-12-11T02:34:37.331Z,14.40
2022-12-11T02:37:10.813Z,16.75
2022-12-11T02:39:41.197Z,14.73
2022-12-11T02:42:09.594Z,14.85
2022-12-11T02:44:37.912Z,15.38
2022-12-11T02:47:08.291Z,15.15
2022-12-11T02:49:35.471Z,15.68
2022-12-11T02:52:05.237Z,14.80
2022-12-11T02:54:35.854Z,15.43
2022-12-11T02:57:33.346Z,15.50
2022-12-11T02:59:59.922Z,14.63
2022-12-11T03:02:26.656Z,15.02
2022-12-11T03:04:54.025Z,14.73
2022-12-11T03:07:28.726Z,13.60
2022-12-11T03:09:55.526Z,14.35
2022-12-11T03:12:33.167Z,14.88
2022-12-11T03:15:02.039Z,15.63
2022-12-11T03:17:38.526Z,15.83
2022-12-11T03:20:24.834Z,15.48
2022-12-11T03:23:16.442Z,15.02
2022-12-11T03:26:12.156Z,15.80
2022-12-11T03:28:56.033Z,13.10
2022-12-11T03:31:30.718Z,13.20
2022-12-11T03:34:03.638Z,11.38
2022-12-11T03:36:36.467Z,13.25
2022-12-11T03:39:09.593Z,13.40
2022-12-11T03:41:39.751Z,13.70
2022-12-11T03:44:08.775Z,15.67
2022-12-11T03:46:39.430Z,14.10
2022-12-11T03:49:11.900Z,15.43
2022-12-11T03:51:42.254Z,15.52
2022-12-11T03:54:11.143Z,14.38
2022-12-11T03:56:40.768Z,14.60
2022-12-11T03:59:07.158Z,15.00
2022-12-11T04:01:33.777Z,14.02
2022-12-11T04:04:00.334Z,12.90
2022-12-11T04:06:27.391Z,13.25
2022-12-11T04:08:54.660Z,15.30
2022-12-11T04:11:36.361Z,14.55
2022-12-11T04:14:26.414Z,14.25
2022-12-11T04:16:53.401Z,12.95
2022-12-11T04:19:39.891Z,13.85
2022-12-11T04:22:26.354Z,14.60
2022-12-11T04:24:52.872Z,13.50
2022-12-11T04:27:39.444Z,13.45
2022-12-11T04:30:10.554Z,12.80
2022-12-11T04:32:37.294Z,12.60
2022-12-11T04:35:04.211Z,13.47
2022-12-11T04:37:30.829Z,11.75
2022-12-11T04:39:57.233Z,12.68
2022-12-11T04:42:23.723Z,11.65
2022-12-11T04:44:50.243Z,11.00
2022-12-11T04:47:16.983Z,11.23
2022-12-11T04:49:43.531Z,11.32
2022-12-11T04:52:15.479Z,10.85
2022-12-11T04:54:42.096Z,9.68
2022-12-11T04:57:08.534Z,10.88
2022-12-11T04:59:35.218Z,10.93
2022-12-11T05:02:01.790Z,10.25
2022-12-11T05:04:33.240Z,10.27
2022-12-11T05:07:00.022Z,10.20
2022-12-11T05:09:27.948Z,11.32
2022-12-11T05:11:57.147Z,10.50
2022-12-11T05:14:23.717Z,10.43
2022-12-11T05:16:51.187Z,10.90
2022-12-11T05:19:18.839Z,9.60
2022-12-11T05:21:45.408Z,9.77
2022-12-11T05:24:11.936Z,9.83
2022-12-11T05:26:38.480Z,11.35
2022-12-11T05:29:05.094Z,10.60
2022-12-11T05:31:37.027Z,11.02
2022-12-11T05:34:04.071Z,10.32
2022-12-11T05:36:34.390Z,10.60
2022-12-11T05:39:02.361Z,9.40
2022-12-11T05:41:30.543Z,10.23
2022-12-11T05:43:57.383Z,10.13
2022-12-11T05:46:29.247Z,10.25
2022-12-11T05:48:58.426Z,9.87
2022-12-11T05:51:25.970Z,9.90
2022-12-11T05:53:54.144Z,11.18
2022-12-11T05:56:32.392Z,9.95
2022-12-11T05:59:01.040Z,9.88
2022-12-11T06:01:38.521Z,10.67
2022-12-11T06:04:06.911Z,10.27
2022-12-11T06:06:34.529Z,10.50
2022-12-11T06:09:02.205Z,10.05
2022-12-11T06:11:30.776Z,9.75
2022-12-11T06:13:58.603Z,9.37
2022-12-11T06:16:25.538Z,9.90
2022-12-11T06:18:57.872Z,9.88
2022-12-11T06:21:28.151Z,9.95
2022-12-11T06:24:00.888Z,10.77
2022-12-11T06:26:28.498Z,10.93
2022-12-11T06:28:55.441Z,10.02
2022-12-11T06:31:22.108Z,10.70
2022-12-11T06:33:48.743Z,10.05
2022-12-11T06:36:18.364Z,11.45
2022-12-11T06:38:45.879Z,10.47
2022-12-11T06:41:13.010Z,11.43
2022-12-11T06:43:40.417Z,10.70
2022-12-11T06:46:09.355Z,12.10
2022-12-11T06:48:36.442Z,10.80
2022-12-11T06:51:19.993Z,10.10
2022-12-11T06:53:54.485Z,12.98
2022-12-11T06:56:22.497Z,11.98
2022-12-11T06:58:49.632Z,13.02
2022-12-11T07:01:25.648Z,12.27
2022-12-11T07:03:57.298Z,10.93
2022-12-11T07:06:25.482Z,13.68
2022-12-11T07:08:52.196Z,12.35
2022-12-11T07:11:20.769Z,13.25
2022-12-11T07:13:47.715Z,13.82
2022-12-11T07:16:15.914Z,14.57
2022-12-11T07:18:48.313Z,13.07
2022-12-11T07:21:14.849Z,12.55
2022-12-11T07:23:41.939Z,13.27
2022-12-11T07:26:11.621Z,12.82
2022-12-11T07:28:38.965Z,13.00
2022-12-11T07:31:11.204Z,13.25
2022-12-11T07:33:37.913Z,11.73
2022-12-11T07:36:07.035Z,13.15
2022-12-11T07:38:33.978Z,11.18
2022-12-11T07:41:02.407Z,10.70
2022-12-11T07:43:29.053Z,11.35
2022-12-11T07:45:55.620Z,12.55
2022-12-11T07:48:23.261Z,12.43
2022-12-11T07:50:50.326Z,12.00
2022-12-11T07:53:17.475Z,11.80
2022-12-11T07:55:44.003Z,11.20
2022-12-11T07:58:10.548Z,12.02
2022-12-11T08:00:37.153Z,11.02
2022-12-11T08:03:03.814Z,11.88
2022-12-11T08:05:30.527Z,12.10
2022-12-11T08:07:57.817Z,12.23
2022-12-11T08:10:26.788Z,12.63
2022-12-11T08:12:53.689Z,11.52
2022-12-11T08:15:21.026Z,13.23
2022-12-11T08:17:48.622Z,13.23
2022-12-11T08:20:15.867Z,11.57
2022-12-11T08:22:43.901Z,12.30
2022-12-11T08:25:20.383Z,11.45
2022-12-11T08:27:50.518Z,12.20
2022-12-11T08:30:17.483Z,13.25
2022-12-11T08:32:45.246Z,13.68
2022-12-11T08:35:11.927Z,12.98
2022-12-11T08:37:38.869Z,12.38
2022-12-11T08:40:06.563Z,12.53
2022-12-11T08:42:56.184Z,12.27
2022-12-11T08:45:22.833Z,12.75
2022-12-11T08:47:50.759Z,10.75
2022-12-11T08:50:17.296Z,10.90
2022-12-11T08:52:43.807Z,10.17
2022-12-11T08:55:12.100Z,8.73
2022-12-11T08:57:39.784Z,9.48
2022-12-11T09:00:10.738Z,9.63
2022-12-11T09:02:38.234Z,9.95
2022-12-11T09:05:19.990Z,9.60
2022-12-11T09:07:46.541Z,9.82
2022-12-11T09:10:14.423Z,10.13
2022-12-11T09:12:51.830Z,10.55
2022-12-11T09:15:18.506Z,10.75
2022-12-11T09:17:45.043Z,10.27
2022-12-11T09:20:12.081Z,11.38
2022-12-11T09:22:38.612Z,10.75
2022-12-11T09:25:10.575Z,9.25
2022-12-11T09:27:38.459Z,9.52
2022-12-11T09:30:05.773Z,10.53
2022-12-11T09:32:32.432Z,10.68
2022-12-11T09:34:59.214Z,10.55
2022-12-11T09:37:26.667Z,10.55
2022-12-11T09:39:53.598Z,9.70
2022-12-11T09:42:49.236Z,11.13
2022-12-11T09:45:16.537Z,11.52
2022-12-11T09:47:57.004Z,12.20
2022-12-11T09:50:28.677Z,11.13
2022-12-11T09:53:13.062Z,11.35
2022-12-11T09:55:49.341Z,11.43
2022-12-11T09:58:31.732Z,10.98
2022-12-11T10:01:13.222Z,10.95
2022-12-11T10:04:02.242Z,9.85
2022-12-11T10:06:38.387Z,11.73
2022-12-11T10:09:33.289Z,10.53
2022-12-11T10:12:12.510Z,12.55
2022-12-11T10:14:45.344Z,11.90
2022-12-11T10:17:29.024Z,11.25
2022-12-11T10:20:00.366Z,11.30
2022-12-11T10:22:29.910Z,11.00
2022-12-11T10:25:11.535Z,10.98
2022-12-11T10:27:40.418Z,10.30
2022-12-11T10:30:13.146Z,10.60
2022-12-11T10:32:50.570Z,10.63
2022-12-11T10:35:26.981Z,10.37
2022-12-11T10:38:01.538Z,8.63
2022-12-11T10:40:34.209Z,9.75
2022-12-11T10:43:00.690Z,9.82
2022-12-11T10:45:27.513Z,11.02
2022-12-11T10:48:12.056Z,11.00
2022-12-11T10:50:39.563Z,9.05
2022-12-11T10:53:06.464Z,9.57
2022-12-11T10:56:00.144Z,8.70
2022-12-11T10:58:33.801Z,9.00
2022-12-11T11:01:15.572Z,8.73
2022-12-11T11:04:16.422Z,9.10
2022-12-11T11:06:46.380Z,9.32
2022-12-11T11:09:36.807Z,8.45
2022-12-11T11:12:07.816Z,8.23
2022-12-11T11:14:34.934Z,8.43
2022-12-11T11:17:01.555Z,9.18
2022-12-11T11:19:34.956Z,8.57
2022-12-11T11:22:17.746Z,9.00
2022-12-11T11:24:51.936Z,7.70
2022-12-11T11:27:41.721Z,8.53
2022-12-11T11:30:23.286Z,8.15
2022-12-11T11:32:56.041Z,8.15
2022-12-11T11:35:27.787Z,8.73
2022-12-11T11:38:09.443Z,7.60
2022-12-11T11:40:47.613Z,7.60
2022-12-11T11:43:46.615Z,8.02
2022-12-11T11:46:27.991Z,7.88
2022-12-11T11:49:13.902Z,7.72
2022-12-11T11:51:51.937Z,8.40
2022-12-11T11:54:36.923Z,8.17
2022-12-11T11:57:15.432Z,7.47
2022-12-11T11:59:49.352Z,8.45
2022-12-11T12:02:20.360Z,7.60
2022-12-11T12:04:49.310Z,7.53
2022-12-11T12:07:22.127Z,7.03
2022-12-11T12:10:06.830Z,8.18
2022-12-11T12:13:03.239Z,8.18
2022-12-11T12:15:39.425Z,8.93
2022-12-11T12:18:26.241Z,7.88
2022-12-11T12:21:00.372Z,9.67
2022-12-11T12:23:49.561Z,7.57
2022-12-11T12:26:35.404Z,7.87
2022-12-11T12:29:39.979Z,8.18
2022-12-11T12:32:31.889Z,7.57
2022-12-11T12:35:09.006Z,7.15
2022-12-11T12:37:45.780Z,8.40
2022-12-11T12:40:42.485Z,8.40
2022-12-11T12:43:17.881Z,7.95
2022-12-11T12:46:06.168Z,7.85
2022-12-11T12:48:32.818Z,6.97
2022-12-11T12:50:59.886Z,8.20
2022-12-11T12:53:34.749Z,8.67
2022-12-11T12:56:03.527Z,7.80
2022-12-11T12:58:36.051Z,8.63
2022-12-11T13:01:15.076Z,8.68
2022-12-11T13:04:01.726Z,7.90
2022-12-11T13:06:38.466Z,9.13
2022-12-11T13:09:23.519Z,8.18
2022-12-11T13:11:58.070Z,8.75
2022-12-11T13:14:32.557Z,9.00
2022-12-11T13:17:26.339Z,8.70
2022-12-11T13:20:13.876Z,8.37
2022-12-11T13:23:00.249Z,8.93
2022-12-11T13:25:32.100Z,8.82
2022-12-11T13:28:19.589Z,9.75
2022-12-11T13:30:57.784Z,8.95
2022-12-11T13:33:25.590Z,9.77
2022-12-11T13:36:18.999Z,8.98
2022-12-11T13:38:54.013Z,9.32
2022-12-11T13:41:20.853Z,9.38
2022-12-11T13:43:49.485Z,9.60
2022-12-11T13:46:23.158Z,9.63
2022-12-11T13:48:57.148Z,9.27
2022-12-11T13:51:25.848Z,9.77
2022-12-11T13:54:16.517Z,9.73
2022-12-11T13:57:15.055Z,8.45
2022-12-11T13:59:43.741Z,9.77
2022-12-11T14:02:19.421Z,9.98
2022-12-11T14:04:52.242Z,9.90
2022-12-11T14:07:33.535Z,9.15
2022-12-11T14:10:11.493Z,9.98
2022-12-11T14:12:38.650Z,9.60
2022-12-11T14:15:06.751Z,10.38
2022-12-11T14:17:35.354Z,10.60
2022-12-11T14:20:08.431Z,10.45
2022-12-11T14:22:35.166Z,10.57
2022-12-11T14:25:19.555Z,11.27
2022-12-11T14:27:52.639Z,10.52
2022-12-11T14:30:51.622Z,9.65
2022-12-11T14:33:29.095Z,10.18
2022-12-11T14:35:56.454Z,9.90
2022-12-11T14:38:35.642Z,10.97
2022-12-11T14:41:15.571Z,10.85
2022-12-11T14:43:50.604Z,10.05
2022-12-11T14:46:24.848Z,10.38
2022-12-11T14:49:15.963Z,10.10
2022-12-11T14:51:42.909Z,10.30
2022-12-11T14:54:23.175Z,10.35
2022-12-11T14:56:49.995Z,11.10
2022-12-11T14:59:26.894Z,9.95
2022-12-11T15:02:02.821Z,11.07
2022-12-11T15:04:32.253Z,9.83
2022-12-11T15:07:00.112Z,9.15
2022-12-11T15:09:42.757Z,10.75
2022-12-11T15:12:27.488Z,10.50
2022-12-11T15:15:03.046Z,9.20
2022-12-11T15:17:30.894Z,11.40
2022-12-11T15:20:23.420Z,10.85
2022-12-11T15:22:50.411Z,11.85
2022-12-11T15:25:25.924Z,10.73
2022-12-11T15:27:55.429Z,11.30
2022-12-11T15:30:26.531Z,10.10
2022-12-11T15:33:11.751Z,10.52
2022-12-11T15:35:40.280Z,11.18
2022-12-11T15:38:07.076Z,10.80
2022-12-11T15:43:36.185Z,10.90
2022-12-11T15:46:04.791Z,16.38
2022-12-11T15:48:31.421Z,61.67
2022-12-11T15:50:58.000Z,112.28
2022-12-11T15:53:24.659Z,48.05
2022-12-11T15:55:52.582Z,24.30
2022-12-11T15:58:21.508Z,22.67
2022-12-11T16:00:48.272Z,16.27
2022-12-11T16:03:17.723Z,15.25
2022-12-11T16:05:44.706Z,16.92
2022-12-11T16:08:17.395Z,11.30
2022-12-11T16:10:45.328Z,11.77
2022-12-11T16:13:13.226Z,10.50
2022-12-11T16:15:43.811Z,10.63
2022-12-11T16:18:13.216Z,10.57
2022-12-11T16:20:41.526Z,11.33
2022-12-11T16:23:10.251Z,10.05
2022-12-11T16:25:39.249Z,9.93
2022-12-11T16:28:06.948Z,10.07
2022-12-11T16:30:35.487Z,10.40
2022-12-11T16:33:12.092Z,11.07
2022-12-11T16:35:39.868Z,10.25
2022-12-11T16:38:07.694Z,10.70
2022-12-11T16:40:36.036Z,10.75
2022-12-11T16:43:05.060Z,10.93
2022-12-11T16:45:32.265Z,10.93
2022-12-11T16:47:58.946Z,11.00
2022-12-11T16:50:25.891Z,10.25
2022-12-11T16:52:52.430Z,12.55
2022-12-11T16:55:22.134Z,9.73
2022-12-11T16:57:48.613Z,11.10
2022-12-11T17:00:15.782Z,10.65
2022-12-11T17:02:42.349Z,9.95
2022-12-11T17:05:09.200Z,10.02
2022-12-11T17:07:35.714Z,8.80
2022-12-11T17:10:03.180Z,9.80
2022-12-11T17:12:30.388Z,9.95
2022-12-11T17:14:57.129Z,8.77
2022-12-11T17:17:24.262Z,8.15
2022-12-11T17:19:50.737Z,10.20
2022-12-11T17:22:17.248Z,11.20
2022-12-11T17:24:43.722Z,9.32
2022-12-11T17:27:10.211Z,9.33
2022-12-11T17:29:36.784Z,9.30
2022-12-11T17:32:03.386Z,9.15
2022-12-11T17:34:36.105Z,8.70
2022-12-11T17:37:04.980Z,8.33
2022-12-11T17:39:31.530Z,9.90
2022-12-11T17:41:58.006Z,8.45
2022-12-11T17:44:26.407Z,8.35
2022-12-11T17:46:52.998Z,8.50
2022-12-11T17:49:19.875Z,8.53
2022-12-11T17:51:46.446Z,9.18
2022-12-11T17:54:13.942Z,8.80
2022-12-11T17:56:40.699Z,8.68
2022-12-11T17:59:07.138Z,7.95
2022-12-11T18:01:33.984Z,8.03
2022-12-11T18:04:03.957Z,8.32
2022-12-11T18:06:30.794Z,8.27
2022-12-11T18:08:58.122Z,8.02
2022-12-11T18:11:25.421Z,8.93
2022-12-11T18:13:53.420Z,10.20
2022-12-11T18:16:27.205Z,9.68
2022-12-11T18:18:54.043Z,8.38
2022-12-11T18:21:32.531Z,9.02
2022-12-11T18:24:00.397Z,8.85
2022-12-11T18:26:27.266Z,9.10
2022-12-11T18:28:54.463Z,8.88
2022-12-11T18:31:21.895Z,8.95
2022-12-11T18:33:48.695Z,8.98
2022-12-11T18:36:17.255Z,8.18
2022-12-11T18:38:44.437Z,9.03
2022-12-11T18:41:13.143Z,9.27
2022-12-11T18:43:42.221Z,9.27
2022-12-11T18:46:14.705Z,8.52
2022-12-11T18:48:48.285Z,8.13
2022-12-11T18:51:24.953Z,7.20
2022-12-11T18:53:55.226Z,7.95
2022-12-11T18:56:22.419Z,8.60
2022-12-11T18:58:51.009Z,8.13
2022-12-11T19:01:21.406Z,7.90
2022-12-11T19:03:48.354Z,7.50
2022-12-11T19:06:18.165Z,7.75
2022-12-11T19:08:45.452Z,8.90
2022-12-11T19:11:19.683Z,7.10
2022-12-11T19:13:46.678Z,8.38
2022-12-11T19:16:22.705Z,7.43
2022-12-11T19:18:50.617Z,7.95
2022-12-11T19:21:18.501Z,7.03
2022-12-11T19:23:46.462Z,6.88
2022-12-11T19:26:15.624Z,8.25
2022-12-11T19:28:42.322Z,7.83
2022-12-11T19:31:13.746Z,7.53
2022-12-11T19:33:42.169Z,10.70
2022-12-11T19:36:11.567Z,7.82
2022-12-11T19:38:39.898Z,7.80
2022-12-11T19:41:09.027Z,7.60
2022-12-11T19:43:41.544Z,8.10
2022-12-11T19:46:09.134Z,8.00
2022-12-11T19:48:41.400Z,7.88
2022-12-11T19:51:10.540Z,8.70
2022-12-11T19:53:37.663Z,7.57
2022-12-11T19:56:04.847Z,7.70
2022-12-11T19:58:32.373Z,7.90
2022-12-11T20:00:59.561Z,8.02
2022-12-11T20:03:27.041Z,7.50
2022-12-11T20:06:07.166Z,7.67
2022-12-11T20:08:44.570Z,7.50
2022-12-11T20:11:17.580Z,7.90
2022-12-11T20:13:45.899Z,8.77
2022-12-11T20:16:13.355Z,8.57
2022-12-11T20:18:39.948Z,10.63
2022-12-11T20:21:11.559Z,9.93
2022-12-11T20:23:38.525Z,8.63
2022-12-11T20:26:14.605Z,9.77
2022-12-11T20:28:41.532Z,8.52
2022-12-11T20:31:18.081Z,8.63
2022-12-11T20:33:46.688Z,8.65
2022-12-11T20:36:15.094Z,7.95
2022-12-11T20:38:41.788Z,7.20
2022-12-11T20:41:13.751Z,7.78
2022-12-11T20:43:41.002Z,7.57
2022-12-11T20:46:09.755Z,8.43
2022-12-11T20:48:37.902Z,7.88
2022-12-11T20:51:06.453Z,8.15
2022-12-11T20:53:35.033Z,8.77
2022-12-11T20:56:01.953Z,8.53
2022-12-11T20:58:28.358Z,7.72
2022-12-11T21:00:54.954Z,7.80
2022-12-11T21:03:21.512Z,8.27
2022-12-11T21:05:48.077Z,7.43
2022-12-11T21:08:14.666Z,8.37
2022-12-11T21:10:43.336Z,8.15
2022-12-11T21:13:10.211Z,7.72
2022-12-11T21:15:38.786Z,7.22
2022-12-11T21:18:06.770Z,7.57
2022-12-11T21:20:34.086Z,7.77
2022-12-11T21:23:00.906Z,8.57
2022-12-11T21:25:27.642Z,7.25
2022-12-11T21:27:54.220Z,7.85
2022-12-11T21:30:21.189Z,7.70
2022-12-11T21:32:47.712Z,7.73
2022-12-11T21:35:14.540Z,7.75
2022-12-11T21:37:41.884Z,8.13
2022-12-11T21:40:10.191Z,7.97
2022-12-11T21:42:36.702Z,8.13
2022-12-11T21:47:50.588Z,7.13
2022-12-11T21:50:18.826Z,8.15
2022-12-11T21:52:45.364Z,8.10
2022-12-11T21:55:12.454Z,7.47
2022-12-11T21:57:39.415Z,8.50
2022-12-11T22:00:06.446Z,7.18
2022-12-11T22:02:37.439Z,8.73
2022-12-11T22:05:07.580Z,8.25
2022-12-11T22:07:33.986Z,7.32
2022-12-11T22:10:00.667Z,8.73
2022-12-11T22:12:28.543Z,7.82
2022-12-11T22:14:55.079Z,8.05
2022-12-11T22:17:21.804Z,8.18
2022-12-11T22:19:48.410Z,8.05
2022-12-11T22:22:14.876Z,8.53
2022-12-11T22:24:41.649Z,8.02
2022-12-11T22:27:08.195Z,7.82
2022-12-11T22:29:35.542Z,7.75
2022-12-11T22:32:03.224Z,7.53
2022-12-11T22:34:30.456Z,7.53
2022-12-11T22:36:57.100Z,8.15
2022-12-11T22:39:24.739Z,8.60
2022-12-11T22:41:51.452Z,8.55
2022-12-11T22:44:31.834Z,8.00
2022-12-11T22:46:58.592Z,8.27
2022-12-11T22:49:25.107Z,7.32
2022-12-11T22:51:51.586Z,8.07
2022-12-11T22:54:18.240Z,8.38
2022-12-11T22:56:45.221Z,8.50
2022-12-11T22:59:11.838Z,7.97
2022-12-11T23:01:38.359Z,9.13
2022-12-11T23:04:05.520Z,8.52
2022-12-11T23:06:33.422Z,8.02
2022-12-11T23:09:01.253Z,8.05
2022-12-11T23:11:34.885Z,9.23
2022-12-11T23:14:02.060Z,8.05
2022-12-11T23:16:30.265Z,8.40
2022-12-11T23:18:58.242Z,8.55
2022-12-11T23:21:26.409Z,7.18
2022-12-11T23:23:53.974Z,7.77
2022-12-11T23:26:21.499Z,9.07
2022-12-11T23:28:48.562Z,8.40
2022-12-11T23:31:15.623Z,8.65
2022-12-11T23:33:42.212Z,7.38
2022-12-11T23:36:09.213Z,8.00
2022-12-11T23:38:36.118Z,7.68
2022-12-11T23:41:04.644Z,7.68
2022-12-11T23:43:31.355Z,8.40
2022-12-11T23:45:58.721Z,7.85
